sensor_id;sensor_type;location;lat;lon;timestamp;temperature;humidity
57576;DHT22;43412;-33.800;150.804;2022-11-15T00:00:48;27.40;83.40
57576;DHT22;43412;-33.800;150.804;2022-11-15T00:03:15;28.10;81.50
57576;DHT22;43412;-33.800;150.804;2022-11-15T00:05:42;28.50;81.40
57576;DHT22;43412;-33.800;150.804;2022-11-15T00:08:09;28.50;82.00
57576;DHT22;43412;-33.800;150.804;2022-11-15T00:10:36;28.20;78.30
57576;DHT22;43412;-33.800;150.804;2022-11-15T00:13:09;27.70;80.50
57576;DHT22;43412;-33.800;150.804;2022-11-15T00:15:37;27.20;79.90
57576;DHT22;43412;-33.800;150.804;2022-11-15T00:18:04;26.90;81.30
57576;DHT22;43412;-33.800;150.804;2022-11-15T00:20:33;26.70;82.70
57576;DHT22;43412;-33.800;150.804;2022-11-15T00:23:00;26.50;81.80
57576;DHT22;43412;-33.800;150.804;2022-11-15T00:25:26;26.20;81.80
57576;DHT22;43412;-33.800;150.804;2022-11-15T00:27:56;25.80;80.30
57576;DHT22;43412;-33.800;150.804;2022-11-15T00:30:23;25.50;81.50
57576;DHT22;43412;-33.800;150.804;2022-11-15T00:32:50;25.30;82.00
57576;DHT22;43412;-33.800;150.804;2022-11-15T00:35:17;25.20;84.60
57576;DHT22;43412;-33.800;150.804;2022-11-15T00:37:44;25.10;84.00
57576;DHT22;43412;-33.800;150.804;2022-11-15T00:40:11;25.10;85.00
57576;DHT22;43412;-33.800;150.804;2022-11-15T00:42:39;25.10;85.30
57576;DHT22;43412;-33.800;150.804;2022-11-15T00:45:05;25.10;85.00
57576;DHT22;43412;-33.800;150.804;2022-11-15T00:47:32;25.20;84.80
57576;DHT22;43412;-33.800;150.804;2022-11-15T00:49:59;25.60;86.50
57576;DHT22;43412;-33.800;150.804;2022-11-15T00:52:25;26.20;83.80
57576;DHT22;43412;-33.800;150.804;2022-11-15T00:54:52;26.40;84.30
57576;DHT22;43412;-33.800;150.804;2022-11-15T00:57:19;26.80;83.10
57576;DHT22;43412;-33.800;150.804;2022-11-15T00:59:45;27.00;82.80
57576;DHT22;43412;-33.800;150.804;2022-11-15T01:02:12;26.80;81.90
57576;DHT22;43412;-33.800;150.804;2022-11-15T01:04:39;26.80;81.10
57576;DHT22;43412;-33.800;150.804;2022-11-15T01:07:05;26.70;80.20
57576;DHT22;43412;-33.800;150.804;2022-11-15T01:09:32;26.60;82.70
57576;DHT22;43412;-33.800;150.804;2022-11-15T01:11:59;26.40;82.70
57576;DHT22;43412;-33.800;150.804;2022-11-15T01:14:25;26.40;83.00
57576;DHT22;43412;-33.800;150.804;2022-11-15T01:16:52;26.60;82.20
57576;DHT22;43412;-33.800;150.804;2022-11-15T01:19:19;26.80;82.10
57576;DHT22;43412;-33.800;150.804;2022-11-15T01:21:45;26.90;80.50
57576;DHT22;43412;-33.800;150.804;2022-11-15T01:24:14;26.90;81.30
57576;DHT22;43412;-33.800;150.804;2022-11-15T01:26:41;27.10;80.90
57576;DHT22;43412;-33.800;150.804;2022-11-15T01:29:08;27.20;79.00
57576;DHT22;43412;-33.800;150.804;2022-11-15T01:31:34;27.50;81.90
57576;DHT22;43412;-33.800;150.804;2022-11-15T01:34:01;27.60;79.80
57576;DHT22;43412;-33.800;150.804;2022-11-15T01:36:27;27.40;79.00
57576;DHT22;43412;-33.800;150.804;2022-11-15T01:38:55;27.10;78.90
57576;DHT22;43412;-33.800;150.804;2022-11-15T01:41:27;26.70;78.40
57576;DHT22;43412;-33.800;150.804;2022-11-15T01:43:55;26.40;79.50
57576;DHT22;43412;-33.800;150.804;2022-11-15T01:46:34;26.30;81.20
57576;DHT22;43412;-33.800;150.804;2022-11-15T01:49:06;26.40;80.90
57576;DHT22;43412;-33.800;150.804;2022-11-15T01:51:36;26.80;80.40
57576;DHT22;43412;-33.800;150.804;2022-11-15T01:54:04;27.50;78.90
57576;DHT22;43412;-33.800;150.804;2022-11-15T01:56:36;28.30;78.90
57576;DHT22;43412;-33.800;150.804;2022-11-15T01:59:04;28.80;78.70
57576;DHT22;43412;-33.800;150.804;2022-11-15T02:01:31;29.20;78.30
57576;DHT22;43412;-33.800;150.804;2022-11-15T02:04:00;29.40;77.30
57576;DHT22;43412;-33.800;150.804;2022-11-15T02:06:28;29.20;77.30
57576;DHT22;43412;-33.800;150.804;2022-11-15T02:08:55;29.10;78.40
57576;DHT22;43412;-33.800;150.804;2022-11-15T02:11:22;28.90;79.20
57576;DHT22;43412;-33.800;150.804;2022-11-15T02:13:49;28.50;77.70
57576;DHT22;43412;-33.800;150.804;2022-11-15T02:19:15;28.50;79.40
57576;DHT22;43412;-33.800;150.804;2022-11-15T02:24:32;28.30;77.80
57576;DHT22;43412;-33.800;150.804;2022-11-15T02:27:08;28.60;78.30
57576;DHT22;43412;-33.800;150.804;2022-11-15T02:32:20;28.00;75.90
57576;DHT22;43412;-33.800;150.804;2022-11-15T02:39:51;28.00;75.20
57576;DHT22;43412;-33.800;150.804;2022-11-15T02:42:25;28.20;75.90
57576;DHT22;43412;-33.800;150.804;2022-11-15T02:45:28;28.60;75.90
57576;DHT22;43412;-33.800;150.804;2022-11-15T02:47:56;29.00;75.70
57576;DHT22;43412;-33.800;150.804;2022-11-15T02:50:26;28.70;74.40
57576;DHT22;43412;-33.800;150.804;2022-11-15T02:52:53;28.70;77.70
57576;DHT22;43412;-33.800;150.804;2022-11-15T02:55:33;29.20;77.10
57576;DHT22;43412;-33.800;150.804;2022-11-15T03:03:48;29.60;74.50
57576;DHT22;43412;-33.800;150.804;2022-11-15T03:11:30;28.10;76.30
57576;DHT22;43412;-33.800;150.804;2022-11-15T03:16:48;28.90;77.50
57576;DHT22;43412;-33.800;150.804;2022-11-15T03:19:59;29.40;78.30
57576;DHT22;43412;-33.800;150.804;2022-11-15T03:22:07;29.70;76.90
57576;DHT22;43412;-33.800;150.804;2022-11-15T03:24:36;30.30;75.50
57576;DHT22;43412;-33.800;150.804;2022-11-15T03:27:05;30.50;75.50
57576;DHT22;43412;-33.800;150.804;2022-11-15T03:29:33;30.70;75.10
57576;DHT22;43412;-33.800;150.804;2022-11-15T03:32:06;30.50;74.40
57576;DHT22;43412;-33.800;150.804;2022-11-15T03:37:03;29.20;74.60
57576;DHT22;43412;-33.800;150.804;2022-11-15T03:39:31;28.70;75.60
57576;DHT22;43412;-33.800;150.804;2022-11-15T03:47:00;28.90;79.50
57576;DHT22;43412;-33.800;150.804;2022-11-15T03:49:31;28.90;76.80
57576;DHT22;43412;-33.800;150.804;2022-11-15T03:52:00;29.10;78.40
57576;DHT22;43412;-33.800;150.804;2022-11-15T03:54:27;29.60;73.70
57576;DHT22;43412;-33.800;150.804;2022-11-15T03:56:53;29.80;74.80
57576;DHT22;43412;-33.800;150.804;2022-11-15T03:59:20;29.40;71.60
57576;DHT22;43412;-33.800;150.804;2022-11-15T04:01:47;28.80;73.30
57576;DHT22;43412;-33.800;150.804;2022-11-15T04:04:13;28.20;72.70
57576;DHT22;43412;-33.800;150.804;2022-11-15T04:06:40;27.70;72.10
57576;DHT22;43412;-33.800;150.804;2022-11-15T04:09:07;27.40;72.70
57576;DHT22;43412;-33.800;150.804;2022-11-15T04:11:33;27.20;73.30
57576;DHT22;43412;-33.800;150.804;2022-11-15T04:14:00;27.20;72.60
57576;DHT22;43412;-33.800;150.804;2022-11-15T04:16:27;27.20;72.20
57576;DHT22;43412;-33.800;150.804;2022-11-15T04:18:53;27.20;72.10
57576;DHT22;43412;-33.800;150.804;2022-11-15T04:21:38;27.10;73.10
57576;DHT22;43412;-33.800;150.804;2022-11-15T04:24:23;27.20;75.70
57576;DHT22;43412;-33.800;150.804;2022-11-15T04:26:49;27.80;76.20
57576;DHT22;43412;-33.800;150.804;2022-11-15T04:29:16;27.90;73.10
57576;DHT22;43412;-33.800;150.804;2022-11-15T04:32:12;28.10;74.20
57576;DHT22;43412;-33.800;150.804;2022-11-15T04:34:38;28.50;72.10
57576;DHT22;43412;-33.800;150.804;2022-11-15T04:37:05;28.30;71.80
57576;DHT22;43412;-33.800;150.804;2022-11-15T04:39:38;28.20;70.80
57576;DHT22;43412;-33.800;150.804;2022-11-15T04:42:05;28.00;69.90
57576;DHT22;43412;-33.800;150.804;2022-11-15T04:44:37;28.30;69.20
57576;DHT22;43412;-33.800;150.804;2022-11-15T04:47:04;28.40;69.40
57576;DHT22;43412;-33.800;150.804;2022-11-15T04:49:31;28.40;68.50
57576;DHT22;43412;-33.800;150.804;2022-11-15T04:51:58;28.50;68.00
57576;DHT22;43412;-33.800;150.804;2022-11-15T04:54:25;28.40;69.20
57576;DHT22;43412;-33.800;150.804;2022-11-15T04:56:51;28.50;69.00
57576;DHT22;43412;-33.800;150.804;2022-11-15T04:59:18;28.30;68.60
57576;DHT22;43412;-33.800;150.804;2022-11-15T05:01:45;28.10;68.20
57576;DHT22;43412;-33.800;150.804;2022-11-15T05:04:11;27.70;68.90
57576;DHT22;43412;-33.800;150.804;2022-11-15T05:06:48;27.50;69.10
57576;DHT22;43412;-33.800;150.804;2022-11-15T05:09:15;27.70;70.40
57576;DHT22;43412;-33.800;150.804;2022-11-15T05:11:42;27.70;69.10
57576;DHT22;43412;-33.800;150.804;2022-11-15T05:14:09;27.70;68.90
57576;DHT22;43412;-33.800;150.804;2022-11-15T05:16:36;27.80;69.10
57576;DHT22;43412;-33.800;150.804;2022-11-15T05:19:03;28.10;69.10
57576;DHT22;43412;-33.800;150.804;2022-11-15T05:21:30;28.40;68.80
57576;DHT22;43412;-33.800;150.804;2022-11-15T05:23:57;28.50;66.90
57576;DHT22;43412;-33.800;150.804;2022-11-15T05:26:24;28.60;67.50
57576;DHT22;43412;-33.800;150.804;2022-11-15T05:28:54;28.50;67.50
57576;DHT22;43412;-33.800;150.804;2022-11-15T05:31:22;28.40;67.50
57576;DHT22;43412;-33.800;150.804;2022-11-15T05:33:49;28.40;68.30
57576;DHT22;43412;-33.800;150.804;2022-11-15T05:36:22;28.30;70.40
57576;DHT22;43412;-33.800;150.804;2022-11-15T05:38:52;28.30;69.70
57576;DHT22;43412;-33.800;150.804;2022-11-15T05:41:20;28.30;70.10
57576;DHT22;43412;-33.800;150.804;2022-11-15T05:43:48;28.30;68.80
57576;DHT22;43412;-33.800;150.804;2022-11-15T05:46:15;28.40;70.20
57576;DHT22;43412;-33.800;150.804;2022-11-15T05:48:44;28.30;70.00
57576;DHT22;43412;-33.800;150.804;2022-11-15T05:51:11;28.20;68.10
57576;DHT22;43412;-33.800;150.804;2022-11-15T05:53:39;28.10;67.30
57576;DHT22;43412;-33.800;150.804;2022-11-15T05:56:06;27.80;68.40
57576;DHT22;43412;-33.800;150.804;2022-11-15T05:58:35;27.80;68.90
57576;DHT22;43412;-33.800;150.804;2022-11-15T06:01:03;27.60;66.80
57576;DHT22;43412;-33.800;150.804;2022-11-15T06:03:29;27.50;67.40
57576;DHT22;43412;-33.800;150.804;2022-11-15T06:05:56;27.40;67.90
57576;DHT22;43412;-33.800;150.804;2022-11-15T06:08:23;27.30;67.70
57576;DHT22;43412;-33.800;150.804;2022-11-15T06:10:50;27.30;69.00
57576;DHT22;43412;-33.800;150.804;2022-11-15T06:13:16;27.30;68.50
57576;DHT22;43412;-33.800;150.804;2022-11-15T06:15:43;27.20;68.20
57576;DHT22;43412;-33.800;150.804;2022-11-15T06:18:09;27.20;68.50
57576;DHT22;43412;-33.800;150.804;2022-11-15T06:20:36;27.10;67.60
57576;DHT22;43412;-33.800;150.804;2022-11-15T06:23:03;26.90;65.40
57576;DHT22;43412;-33.800;150.804;2022-11-15T06:25:30;26.70;66.40
57576;DHT22;43412;-33.800;150.804;2022-11-15T06:27:58;26.60;67.80
57576;DHT22;43412;-33.800;150.804;2022-11-15T06:30:25;26.50;68.50
57576;DHT22;43412;-33.800;150.804;2022-11-15T06:32:58;26.50;68.90
57576;DHT22;43412;-33.800;150.804;2022-11-15T06:35:25;26.40;67.60
57576;DHT22;43412;-33.800;150.804;2022-11-15T06:37:52;26.20;67.40
57576;DHT22;43412;-33.800;150.804;2022-11-15T06:40:19;26.00;67.40
57576;DHT22;43412;-33.800;150.804;2022-11-15T06:42:45;26.00;68.40
57576;DHT22;43412;-33.800;150.804;2022-11-15T06:45:12;26.00;67.70
57576;DHT22;43412;-33.800;150.804;2022-11-15T06:47:45;25.90;67.30
57576;DHT22;43412;-33.800;150.804;2022-11-15T06:50:12;25.90;67.70
57576;DHT22;43412;-33.800;150.804;2022-11-15T06:52:39;25.90;67.20
57576;DHT22;43412;-33.800;150.804;2022-11-15T06:55:06;25.80;67.10
57576;DHT22;43412;-33.800;150.804;2022-11-15T06:57:32;25.80;67.10
57576;DHT22;43412;-33.800;150.804;2022-11-15T07:00:00;25.70;67.40
57576;DHT22;43412;-33.800;150.804;2022-11-15T07:02:27;25.60;66.90
57576;DHT22;43412;-33.800;150.804;2022-11-15T07:04:54;25.60;67.90
57576;DHT22;43412;-33.800;150.804;2022-11-15T07:07:20;25.50;67.60
57576;DHT22;43412;-33.800;150.804;2022-11-15T07:09:47;25.40;67.30
57576;DHT22;43412;-33.800;150.804;2022-11-15T07:12:14;25.40;67.90
57576;DHT22;43412;-33.800;150.804;2022-11-15T07:14:40;25.30;68.00
57576;DHT22;43412;-33.800;150.804;2022-11-15T07:17:07;25.20;67.70
57576;DHT22;43412;-33.800;150.804;2022-11-15T07:19:34;25.10;67.20
57576;DHT22;43412;-33.800;150.804;2022-11-15T07:22:03;25.10;67.80
57576;DHT22;43412;-33.800;150.804;2022-11-15T07:24:30;25.00;68.30
57576;DHT22;43412;-33.800;150.804;2022-11-15T07:26:56;24.90;67.20
57576;DHT22;43412;-33.800;150.804;2022-11-15T07:29:23;24.80;67.20
57576;DHT22;43412;-33.800;150.804;2022-11-15T07:31:50;24.60;66.50
57576;DHT22;43412;-33.800;150.804;2022-11-15T07:34:23;24.50;66.00
57576;DHT22;43412;-33.800;150.804;2022-11-15T07:36:50;24.30;66.40
57576;DHT22;43412;-33.800;150.804;2022-11-15T07:39:17;24.10;66.60
57576;DHT22;43412;-33.800;150.804;2022-11-15T07:41:44;24.00;66.70
57576;DHT22;43412;-33.800;150.804;2022-11-15T07:44:13;23.90;66.60
57576;DHT22;43412;-33.800;150.804;2022-11-15T07:46:40;23.80;66.80
57576;DHT22;43412;-33.800;150.804;2022-11-15T07:49:07;23.70;67.50
57576;DHT22;43412;-33.800;150.804;2022-11-15T07:51:33;23.60;67.90
57576;DHT22;43412;-33.800;150.804;2022-11-15T07:54:00;23.50;67.60
57576;DHT22;43412;-33.800;150.804;2022-11-15T07:56:27;23.40;67.30
57576;DHT22;43412;-33.800;150.804;2022-11-15T07:58:53;23.30;68.50
57576;DHT22;43412;-33.800;150.804;2022-11-15T08:01:20;23.20;69.10
57576;DHT22;43412;-33.800;150.804;2022-11-15T08:03:47;23.10;69.70
57576;DHT22;43412;-33.800;150.804;2022-11-15T08:06:13;23.00;70.40
57576;DHT22;43412;-33.800;150.804;2022-11-15T08:08:40;22.90;70.80
57576;DHT22;43412;-33.800;150.804;2022-11-15T08:11:07;22.70;71.40
57576;DHT22;43412;-33.800;150.804;2022-11-15T08:13:33;22.50;71.30
57576;DHT22;43412;-33.800;150.804;2022-11-15T08:16:01;22.40;72.00
57576;DHT22;43412;-33.800;150.804;2022-11-15T08:18:27;22.30;71.50
57576;DHT22;43412;-33.800;150.804;2022-11-15T08:20:57;22.20;71.90
57576;DHT22;43412;-33.800;150.804;2022-11-15T08:23:24;22.10;72.40
57576;DHT22;43412;-33.800;150.804;2022-11-15T08:25:51;21.90;72.50
57576;DHT22;43412;-33.800;150.804;2022-11-15T08:28:18;21.80;73.00
57576;DHT22;43412;-33.800;150.804;2022-11-15T08:30:44;21.70;73.00
57576;DHT22;43412;-33.800;150.804;2022-11-15T08:33:12;21.50;73.30
57576;DHT22;43412;-33.800;150.804;2022-11-15T08:35:39;21.50;73.50
57576;DHT22;43412;-33.800;150.804;2022-11-15T08:38:06;21.40;74.30
57576;DHT22;43412;-33.800;150.804;2022-11-15T08:40:33;21.30;74.90
57576;DHT22;43412;-33.800;150.804;2022-11-15T08:42:59;21.30;74.80
57576;DHT22;43412;-33.800;150.804;2022-11-15T08:45:31;21.20;75.40
57576;DHT22;43412;-33.800;150.804;2022-11-15T08:47:58;21.10;75.90
57576;DHT22;43412;-33.800;150.804;2022-11-15T08:50:26;21.00;76.30
57576;DHT22;43412;-33.800;150.804;2022-11-15T08:52:53;21.00;76.40
57576;DHT22;43412;-33.800;150.804;2022-11-15T08:55:20;20.90;76.20
57576;DHT22;43412;-33.800;150.804;2022-11-15T08:57:46;20.80;79.00
57576;DHT22;43412;-33.800;150.804;2022-11-15T09:00:13;20.80;80.30
57576;DHT22;43412;-33.800;150.804;2022-11-15T09:02:40;20.70;85.80
57576;DHT22;43412;-33.800;150.804;2022-11-15T09:05:07;20.70;92.50
57576;DHT22;43412;-33.800;150.804;2022-11-15T09:07:34;20.60;95.00
57576;DHT22;43412;-33.800;150.804;2022-11-15T09:10:01;20.60;97.10
57576;DHT22;43412;-33.800;150.804;2022-11-15T09:12:28;20.50;98.30
57576;DHT22;43412;-33.800;150.804;2022-11-15T09:14:54;20.40;98.70
57576;DHT22;43412;-33.800;150.804;2022-11-15T09:17:21;20.30;99.50
57576;DHT22;43412;-33.800;150.804;2022-11-15T09:19:48;20.20;99.90
57576;DHT22;43412;-33.800;150.804;2022-11-15T09:22:14;20.20;99.90
57576;DHT22;43412;-33.800;150.804;2022-11-15T09:24:41;20.10;99.90
57576;DHT22;43412;-33.800;150.804;2022-11-15T09:27:08;20.00;99.90
57576;DHT22;43412;-33.800;150.804;2022-11-15T09:29:34;19.90;99.90
57576;DHT22;43412;-33.800;150.804;2022-11-15T09:32:01;19.90;99.90
57576;DHT22;43412;-33.800;150.804;2022-11-15T09:34:28;19.80;99.90
57576;DHT22;43412;-33.800;150.804;2022-11-15T09:36:55;19.80;99.90
57576;DHT22;43412;-33.800;150.804;2022-11-15T09:39:21;19.80;99.90
57576;DHT22;43412;-33.800;150.804;2022-11-15T09:41:58;19.70;99.90
57576;DHT22;43412;-33.800;150.804;2022-11-15T09:49:30;19.70;99.90
57576;DHT22;43412;-33.800;150.804;2022-11-15T09:51:57;19.70;99.90
57576;DHT22;43412;-33.800;150.804;2022-11-15T09:57:10;19.60;99.90
57576;DHT22;43412;-33.800;150.804;2022-11-15T09:59:41;19.50;99.90
57576;DHT22;43412;-33.800;150.804;2022-11-15T10:04:46;19.50;99.90
57576;DHT22;43412;-33.800;150.804;2022-11-15T10:07:21;19.50;99.90
57576;DHT22;43412;-33.800;150.804;2022-11-15T10:12:16;19.40;99.90
57576;DHT22;43412;-33.800;150.804;2022-11-15T10:14:43;19.40;99.90
57576;DHT22;43412;-33.800;150.804;2022-11-15T10:19:50;19.20;99.90
57576;DHT22;43412;-33.800;150.804;2022-11-15T10:22:41;19.10;99.90
57576;DHT22;43412;-33.800;150.804;2022-11-15T10:27:43;19.00;99.90
57576;DHT22;43412;-33.800;150.804;2022-11-15T10:30:12;19.00;99.90
57576;DHT22;43412;-33.800;150.804;2022-11-15T10:32:40;19.00;99.90
57576;DHT22;43412;-33.800;150.804;2022-11-15T10:35:17;18.90;99.90
57576;DHT22;43412;-33.800;150.804;2022-11-15T10:37:44;18.80;99.90
57576;DHT22;43412;-33.800;150.804;2022-11-15T10:40:16;18.70;99.90
57576;DHT22;43412;-33.800;150.804;2022-11-15T10:42:44;18.60;98.50
57576;DHT22;43412;-33.800;150.804;2022-11-15T10:45:28;18.60;96.20
57576;DHT22;43412;-33.800;150.804;2022-11-15T10:48:18;18.50;95.10
57576;DHT22;43412;-33.800;150.804;2022-11-15T10:50:42;18.50;94.30
57576;DHT22;43412;-33.800;150.804;2022-11-15T10:55:55;18.40;93.70
57576;DHT22;43412;-33.800;150.804;2022-11-15T11:01:21;18.30;93.90
57576;DHT22;43412;-33.800;150.804;2022-11-15T11:04:05;18.30;93.30
57576;DHT22;43412;-33.800;150.804;2022-11-15T11:06:53;18.30;92.90
57576;DHT22;43412;-33.800;150.804;2022-11-15T11:12:01;18.20;92.90
57576;DHT22;43412;-33.800;150.804;2022-11-15T11:14:29;18.10;92.90
57576;DHT22;43412;-33.800;150.804;2022-11-15T11:24:42;17.90;92.30
57576;DHT22;43412;-33.800;150.804;2022-11-15T11:29:57;17.70;92.40
57576;DHT22;43412;-33.800;150.804;2022-11-15T11:35:19;17.60;92.70
57576;DHT22;43412;-33.800;150.804;2022-11-15T11:37:49;17.50;92.70
57576;DHT22;43412;-33.800;150.804;2022-11-15T11:43:21;17.40;93.10
57576;DHT22;43412;-33.800;150.804;2022-11-15T11:45:58;17.40;93.10
57576;DHT22;43412;-33.800;150.804;2022-11-15T11:50:56;17.20;93.00
57576;DHT22;43412;-33.800;150.804;2022-11-15T11:53:34;17.20;92.90
57576;DHT22;43412;-33.800;150.804;2022-11-15T11:56:04;17.20;92.90
57576;DHT22;43412;-33.800;150.804;2022-11-15T11:58:37;17.10;92.70
57576;DHT22;43412;-33.800;150.804;2022-11-15T12:08:52;16.80;92.30
57576;DHT22;43412;-33.800;150.804;2022-11-15T12:11:21;16.70;92.50
57576;DHT22;43412;-33.800;150.804;2022-11-15T12:13:50;16.70;92.40
57576;DHT22;43412;-33.800;150.804;2022-11-15T12:16:37;16.70;92.50
57576;DHT22;43412;-33.800;150.804;2022-11-15T12:19:07;16.60;92.30
57576;DHT22;43412;-33.800;150.804;2022-11-15T12:24:08;16.50;92.00
57576;DHT22;43412;-33.800;150.804;2022-11-15T12:26:40;16.50;92.20
57576;DHT22;43412;-33.800;150.804;2022-11-15T12:29:20;16.40;92.30
57576;DHT22;43412;-33.800;150.804;2022-11-15T12:31:51;16.30;92.30
57576;DHT22;43412;-33.800;150.804;2022-11-15T12:36:49;16.20;92.40
57576;DHT22;43412;-33.800;150.804;2022-11-15T12:39:16;16.10;92.60
57576;DHT22;43412;-33.800;150.804;2022-11-15T12:41:44;16.00;92.50
57576;DHT22;43412;-33.800;150.804;2022-11-15T12:44:12;16.00;92.50
57576;DHT22;43412;-33.800;150.804;2022-11-15T12:57:27;15.80;92.10
57576;DHT22;43412;-33.800;150.804;2022-11-15T13:04:54;15.70;92.00
57576;DHT22;43412;-33.800;150.804;2022-11-15T13:17:45;15.50;91.70
57576;DHT22;43412;-33.800;150.804;2022-11-15T13:27:49;15.30;91.80
57576;DHT22;43412;-33.800;150.804;2022-11-15T13:30:23;15.20;92.00
57576;DHT22;43412;-33.800;150.804;2022-11-15T13:32:50;15.10;91.80
57576;DHT22;43412;-33.800;150.804;2022-11-15T13:35:24;15.10;91.90
57576;DHT22;43412;-33.800;150.804;2022-11-15T13:37:51;15.10;92.00
57576;DHT22;43412;-33.800;150.804;2022-11-15T13:40:29;15.10;92.00
57576;DHT22;43412;-33.800;150.804;2022-11-15T13:42:58;15.00;92.30
57576;DHT22;43412;-33.800;150.804;2022-11-15T13:45:25;15.00;92.40
57576;DHT22;43412;-33.800;150.804;2022-11-15T13:47:56;14.90;92.80
57576;DHT22;43412;-33.800;150.804;2022-11-15T13:50:32;14.90;92.70
57576;DHT22;43412;-33.800;150.804;2022-11-15T13:53:00;14.80;92.60
57576;DHT22;43412;-33.800;150.804;2022-11-15T13:55:28;14.80;92.70
57576;DHT22;43412;-33.800;150.804;2022-11-15T13:57:59;14.70;92.80
57576;DHT22;43412;-33.800;150.804;2022-11-15T14:00:29;14.70;92.90
57576;DHT22;43412;-33.800;150.804;2022-11-15T14:02:57;14.70;93.10
57576;DHT22;43412;-33.800;150.804;2022-11-15T14:05:30;14.70;93.30
57576;DHT22;43412;-33.800;150.804;2022-11-15T14:07:58;14.60;93.30
57576;DHT22;43412;-33.800;150.804;2022-11-15T14:10:32;14.50;93.40
57576;DHT22;43412;-33.800;150.804;2022-11-15T14:12:59;14.50;93.20
57576;DHT22;43412;-33.800;150.804;2022-11-15T14:15:34;14.50;93.30
57576;DHT22;43412;-33.800;150.804;2022-11-15T14:18:01;14.40;93.30
57576;DHT22;43412;-33.800;150.804;2022-11-15T14:23:02;14.40;93.50
57576;DHT22;43412;-33.800;150.804;2022-11-15T14:25:30;14.30;93.50
57576;DHT22;43412;-33.800;150.804;2022-11-15T14:28:14;14.30;93.50
57576;DHT22;43412;-33.800;150.804;2022-11-15T14:30:42;14.30;93.80
57576;DHT22;43412;-33.800;150.804;2022-11-15T14:35:47;14.20;94.10
57576;DHT22;43412;-33.800;150.804;2022-11-15T14:38:14;14.10;94.00
57576;DHT22;43412;-33.800;150.804;2022-11-15T14:40:41;14.00;94.30
57576;DHT22;43412;-33.800;150.804;2022-11-15T14:43:09;14.00;94.30
57576;DHT22;43412;-33.800;150.804;2022-11-15T14:45:36;13.90;94.60
57576;DHT22;43412;-33.800;150.804;2022-11-15T14:48:03;13.90;94.90
57576;DHT22;43412;-33.800;150.804;2022-11-15T14:50:30;13.80;94.90
57576;DHT22;43412;-33.800;150.804;2022-11-15T14:52:58;13.70;95.40
57576;DHT22;43412;-33.800;150.804;2022-11-15T14:55:26;13.70;95.60
57576;DHT22;43412;-33.800;150.804;2022-11-15T14:57:54;13.70;95.90
57576;DHT22;43412;-33.800;150.804;2022-11-15T15:00:21;13.70;95.90
57576;DHT22;43412;-33.800;150.804;2022-11-15T15:02:48;13.60;96.20
57576;DHT22;43412;-33.800;150.804;2022-11-15T15:05:29;13.60;96.30
57576;DHT22;43412;-33.800;150.804;2022-11-15T15:07:56;13.60;96.40
57576;DHT22;43412;-33.800;150.804;2022-11-15T15:10:23;13.60;96.50
57576;DHT22;43412;-33.800;150.804;2022-11-15T15:12:50;13.50;96.50
57576;DHT22;43412;-33.800;150.804;2022-11-15T15:15:22;13.50;96.10
57576;DHT22;43412;-33.800;150.804;2022-11-15T15:17:50;13.40;95.90
57576;DHT22;43412;-33.800;150.804;2022-11-15T15:20:16;13.30;96.10
57576;DHT22;43412;-33.800;150.804;2022-11-15T15:22:43;13.30;96.20
57576;DHT22;43412;-33.800;150.804;2022-11-15T15:27:42;13.20;96.60
57576;DHT22;43412;-33.800;150.804;2022-11-15T15:30:09;13.20;96.80
57576;DHT22;43412;-33.800;150.804;2022-11-15T15:32:36;13.20;96.40
57576;DHT22;43412;-33.800;150.804;2022-11-15T15:35:03;13.10;96.00
57576;DHT22;43412;-33.800;150.804;2022-11-15T15:37:29;13.10;96.10
57576;DHT22;43412;-33.800;150.804;2022-11-15T15:39:58;13.10;96.70
57576;DHT22;43412;-33.800;150.804;2022-11-15T15:42:25;13.10;97.10
57576;DHT22;43412;-33.800;150.804;2022-11-15T15:44:52;13.10;97.40
57576;DHT22;43412;-33.800;150.804;2022-11-15T15:49:45;13.10;97.60
57576;DHT22;43412;-33.800;150.804;2022-11-15T15:52:12;13.10;97.50
57576;DHT22;43412;-33.800;150.804;2022-11-15T15:54:39;13.10;97.20
57576;DHT22;43412;-33.800;150.804;2022-11-15T15:57:06;13.20;97.10
57576;DHT22;43412;-33.800;150.804;2022-11-15T15:59:33;13.20;96.60
57576;DHT22;43412;-33.800;150.804;2022-11-15T16:02:00;13.20;96.90
57576;DHT22;43412;-33.800;150.804;2022-11-15T16:04:26;13.30;96.50
57576;DHT22;43412;-33.800;150.804;2022-11-15T16:07:03;13.30;96.40
57576;DHT22;43412;-33.800;150.804;2022-11-15T16:09:30;13.30;96.20
57576;DHT22;43412;-33.800;150.804;2022-11-15T16:12:14;13.40;95.90
57576;DHT22;43412;-33.800;150.804;2022-11-15T16:14:42;13.50;95.70
57576;DHT22;43412;-33.800;150.804;2022-11-15T16:17:14;13.50;95.60
57576;DHT22;43412;-33.800;150.804;2022-11-15T16:19:43;13.50;95.30
57576;DHT22;43412;-33.800;150.804;2022-11-15T16:22:09;13.60;95.00
57576;DHT22;43412;-33.800;150.804;2022-11-15T16:24:36;13.60;94.90
57576;DHT22;43412;-33.800;150.804;2022-11-15T16:27:02;13.60;94.80
57576;DHT22;43412;-33.800;150.804;2022-11-15T16:29:29;13.50;94.80
57576;DHT22;43412;-33.800;150.804;2022-11-15T16:31:56;13.50;95.10
57576;DHT22;43412;-33.800;150.804;2022-11-15T16:34:22;13.50;95.00
57576;DHT22;43412;-33.800;150.804;2022-11-15T16:36:50;13.50;95.00
57576;DHT22;43412;-33.800;150.804;2022-11-15T16:39:16;13.50;95.20
57576;DHT22;43412;-33.800;150.804;2022-11-15T16:41:44;13.50;95.30
57576;DHT22;43412;-33.800;150.804;2022-11-15T16:44:15;13.50;95.10
57576;DHT22;43412;-33.800;150.804;2022-11-15T16:46:42;13.50;95.20
57576;DHT22;43412;-33.800;150.804;2022-11-15T16:49:12;13.50;95.10
57576;DHT22;43412;-33.800;150.804;2022-11-15T16:51:40;13.50;95.10
57576;DHT22;43412;-33.800;150.804;2022-11-15T16:54:07;13.50;95.00
57576;DHT22;43412;-33.800;150.804;2022-11-15T16:56:33;13.60;94.80
57576;DHT22;43412;-33.800;150.804;2022-11-15T16:59:00;13.50;94.50
57576;DHT22;43412;-33.800;150.804;2022-11-15T17:01:29;13.50;94.20
57576;DHT22;43412;-33.800;150.804;2022-11-15T17:03:56;13.60;94.20
57576;DHT22;43412;-33.800;150.804;2022-11-15T17:06:23;13.60;94.10
57576;DHT22;43412;-33.800;150.804;2022-11-15T17:08:50;13.60;94.00
57576;DHT22;43412;-33.800;150.804;2022-11-15T17:11:19;13.60;93.90
57576;DHT22;43412;-33.800;150.804;2022-11-15T17:13:46;13.50;94.00